createdAt,value
2023-03-13T00:01:32.736Z,3.13
2023-03-13T00:04:00.911Z,2.60
2023-03-13T00:06:32.224Z,2.92
2023-03-13T00:09:03.324Z,2.13
2023-03-13T00:11:31.191Z,2.47
2023-03-13T00:14:00.644Z,2.42
2023-03-13T00:16:29.187Z,2.75
2023-03-13T00:18:57.833Z,2.50
2023-03-13T00:21:28.274Z,2.33
2023-03-13T00:23:56.267Z,2.30
2023-03-13T00:26:25.288Z,2.28
2023-03-13T00:28:53.630Z,2.45
2023-03-13T00:31:23.899Z,1.95
2023-03-13T00:33:53.542Z,2.05
2023-03-13T00:36:26.284Z,2.80
2023-03-13T00:38:55.368Z,2.17
2023-03-13T00:41:24.511Z,2.55
2023-03-13T00:43:52.724Z,2.50
2023-03-13T00:46:22.159Z,2.53
2023-03-13T00:48:50.122Z,2.38
2023-03-13T00:51:19.357Z,2.45
2023-03-13T00:53:49.406Z,3.25
2023-03-13T00:56:18.343Z,2.20
2023-03-13T00:58:47.776Z,2.60
2023-03-13T01:01:17.071Z,2.40
2023-03-13T01:03:47.262Z,2.72
2023-03-13T01:06:18.328Z,2.45
2023-03-13T01:08:46.102Z,2.25
2023-03-13T01:11:15.499Z,2.70
2023-03-13T01:13:43.334Z,2.20
2023-03-13T01:16:13.810Z,2.08
2023-03-13T01:18:44.824Z,2.38
2023-03-13T01:21:13.294Z,2.40
2023-03-13T01:23:41.239Z,2.75
2023-03-13T01:26:10.120Z,2.95
2023-03-13T01:28:39.991Z,2.63
2023-03-13T01:31:32.162Z,2.50
2023-03-13T01:34:02.161Z,2.42
2023-03-13T01:36:30.319Z,2.65
2023-03-13T01:39:00.313Z,2.53
2023-03-13T01:41:29.985Z,2.50
2023-03-13T01:43:59.912Z,2.35
2023-03-13T01:46:36.577Z,2.85
2023-03-13T01:49:11.984Z,2.20
2023-03-13T01:51:58.293Z,1.90
2023-03-13T01:54:30.568Z,2.08
2023-03-13T01:57:11.952Z,1.95
2023-03-13T01:59:44.908Z,1.92
2023-03-13T02:02:13.804Z,2.03
2023-03-13T02:04:44.543Z,1.73
2023-03-13T02:09:41.783Z,1.30
2023-03-13T02:12:10.784Z,1.20
2023-03-13T02:14:41.462Z,1.45
2023-03-13T02:17:09.158Z,1.00
2023-03-13T02:19:51.929Z,1.10
2023-03-13T02:22:31.645Z,0.60
2023-03-13T02:24:59.640Z,1.00
2023-03-13T02:27:27.172Z,0.80
2023-03-13T02:29:55.336Z,0.80
2023-03-13T02:32:23.933Z,0.60
2023-03-13T02:34:56.019Z,0.90
2023-03-13T02:37:26.959Z,1.02
2023-03-13T02:39:55.684Z,0.90
2023-03-13T02:42:24.079Z,0.80
2023-03-13T02:44:52.324Z,0.82
2023-03-13T02:47:22.204Z,0.88
2023-03-13T02:49:53.870Z,0.98
2023-03-13T02:52:30.086Z,0.80
2023-03-13T02:55:12.856Z,0.90
2023-03-13T02:57:40.518Z,0.75
2023-03-13T03:00:12.546Z,0.82
2023-03-13T03:02:42.056Z,0.65
2023-03-13T03:05:10.325Z,0.90
2023-03-13T03:07:38.515Z,0.60
2023-03-13T03:10:08.481Z,0.80
2023-03-13T03:12:36.596Z,0.80
2023-03-13T03:15:05.134Z,0.95
2023-03-13T03:17:35.954Z,0.70
2023-03-13T03:20:07.942Z,0.90
2023-03-13T03:22:37.706Z,0.80
2023-03-13T03:25:06.390Z,0.88
2023-03-13T03:27:34.365Z,0.80
2023-03-13T03:30:02.213Z,1.00
2023-03-13T03:32:30.307Z,1.00
2023-03-13T03:35:00.155Z,1.00
2023-03-13T03:37:27.904Z,0.90
2023-03-13T03:39:56.048Z,1.20
2023-03-13T03:42:24.111Z,1.20
2023-03-13T03:44:52.088Z,1.10
2023-03-13T03:47:20.256Z,1.00
2023-03-13T03:49:48.778Z,1.33
2023-03-13T03:52:17.383Z,1.60
2023-03-13T03:54:45.860Z,2.30
2023-03-13T03:57:15.406Z,1.40
2023-03-13T03:59:45.978Z,1.63
2023-03-13T04:02:14.015Z,1.42
2023-03-13T04:04:42.849Z,2.05
2023-03-13T04:07:34.002Z,2.65
2023-03-13T04:10:02.311Z,2.25
2023-03-13T04:12:37.488Z,1.70
2023-03-13T04:15:05.612Z,2.40
2023-03-13T04:17:33.589Z,2.70
2023-03-13T04:20:02.229Z,2.47
2023-03-13T04:22:31.791Z,2.50
2023-03-13T04:25:00.263Z,3.30
2023-03-13T04:27:30.397Z,2.97
2023-03-13T04:29:58.281Z,3.50
2023-03-13T04:32:42.411Z,2.05
2023-03-13T04:35:28.547Z,3.05
2023-03-13T04:38:19.357Z,2.00
2023-03-13T04:41:05.811Z,2.13
2023-03-13T04:43:39.263Z,2.20
2023-03-13T04:46:25.386Z,3.05
2023-03-13T04:49:25.253Z,2.33
2023-03-13T04:52:22.807Z,3.25
2023-03-13T04:55:18.666Z,2.63
2023-03-13T04:57:54.641Z,3.15
2023-03-13T05:00:42.573Z,2.72
2023-03-13T05:03:32.867Z,2.20
2023-03-13T05:06:31.704Z,2.83
2023-03-13T05:09:25.472Z,2.97
2023-03-13T05:12:13.346Z,2.80
2023-03-13T05:15:13.298Z,3.67
2023-03-13T05:17:59.991Z,3.00
2023-03-13T05:20:35.951Z,3.05
2023-03-13T05:23:22.030Z,2.97
2023-03-13T05:26:18.846Z,3.40
2023-03-13T05:29:03.909Z,2.40
2023-03-13T05:31:55.047Z,2.95
2023-03-13T05:34:41.282Z,3.10
2023-03-13T05:37:29.051Z,3.03
2023-03-13T05:40:14.959Z,3.38
2023-03-13T05:43:09.071Z,4.03
2023-03-13T05:46:05.766Z,3.60
2023-03-13T05:48:49.224Z,3.42
2023-03-13T05:51:36.946Z,3.97
2023-03-13T05:54:23.272Z,4.00
2023-03-13T05:56:52.152Z,4.65
2023-03-13T05:59:46.209Z,5.35
2023-03-13T06:02:32.807Z,3.40
2023-03-13T06:05:02.310Z,3.50
2023-03-13T06:07:30.407Z,3.17
2023-03-13T06:09:58.452Z,3.17
2023-03-13T06:12:26.246Z,3.50
2023-03-13T06:14:54.217Z,4.05
2023-03-13T06:17:32.115Z,4.20
2023-03-13T06:20:00.079Z,5.53
2023-03-13T06:22:27.898Z,3.88
2023-03-13T06:24:56.441Z,2.95
2023-03-13T06:27:23.921Z,5.70
2023-03-13T06:29:51.940Z,5.00
2023-03-13T06:32:19.810Z,3.40
2023-03-13T06:34:47.303Z,3.90
2023-03-13T06:37:15.282Z,3.17
2023-03-13T06:39:43.150Z,2.63
2023-03-13T06:42:10.592Z,2.80
2023-03-13T06:44:38.574Z,3.30
2023-03-13T06:47:06.271Z,4.00
2023-03-13T06:49:33.892Z,4.93
2023-03-13T06:52:01.810Z,4.53
2023-03-13T06:54:29.964Z,4.68
2023-03-13T06:56:57.800Z,5.22
2023-03-13T06:59:25.754Z,5.47
2023-03-13T07:01:53.631Z,6.93
2023-03-13T07:04:21.623Z,6.38
2023-03-13T07:06:49.613Z,7.38
2023-03-13T07:09:20.005Z,7.50
2023-03-13T07:11:48.012Z,7.35
2023-03-13T07:14:17.633Z,4.38
2023-03-13T07:16:46.311Z,5.72
2023-03-13T07:19:15.318Z,7.20
2023-03-13T07:21:44.344Z,5.00
2023-03-13T07:24:12.390Z,5.50
2023-03-13T07:26:42.673Z,5.93
2023-03-13T07:29:16.195Z,5.22
2023-03-13T07:31:44.185Z,5.35
2023-03-13T07:34:12.211Z,4.30
2023-03-13T07:36:41.647Z,5.75
2023-03-13T07:39:09.624Z,4.68
2023-03-13T07:41:38.960Z,4.00
2023-03-13T07:44:07.630Z,4.22
2023-03-13T07:46:35.544Z,4.57
2023-03-13T07:49:03.425Z,3.83
2023-03-13T07:51:42.818Z,2.40
2023-03-13T07:54:11.953Z,3.17
2023-03-13T07:56:40.148Z,3.03
2023-03-13T07:59:08.115Z,2.95
2023-03-13T08:01:36.157Z,2.83
2023-03-13T08:04:05.610Z,3.28
2023-03-13T08:06:39.813Z,3.17
2023-03-13T08:09:07.740Z,2.40
2023-03-13T08:11:35.623Z,3.20
2023-03-13T08:14:03.595Z,2.85
2023-03-13T08:16:34.497Z,3.28
2023-03-13T08:19:05.112Z,2.75
2023-03-13T08:21:34.266Z,2.83
2023-03-13T08:24:05.930Z,2.72
2023-03-13T08:26:35.228Z,2.67
2023-03-13T08:29:04.486Z,2.90
2023-03-13T08:31:38.070Z,3.20
2023-03-13T08:34:06.033Z,3.03
2023-03-13T08:36:35.202Z,2.78
2023-03-13T08:39:05.448Z,2.33
2023-03-13T08:41:36.131Z,2.45
2023-03-13T08:44:05.393Z,2.40
2023-03-13T08:46:35.140Z,2.55
2023-03-13T08:49:03.986Z,2.25
2023-03-13T08:51:31.836Z,2.13
2023-03-13T08:53:59.288Z,2.00
2023-03-13T08:56:30.400Z,2.80
2023-03-13T08:59:00.056Z,2.38
2023-03-13T09:01:30.703Z,2.17
2023-03-13T09:04:00.594Z,1.70
2023-03-13T09:06:30.926Z,2.58
2023-03-13T09:08:59.158Z,2.10
2023-03-13T09:11:27.388Z,2.38
2023-03-13T09:13:56.082Z,2.10
2023-03-13T09:16:24.976Z,1.55
2023-03-13T09:18:53.179Z,1.60
2023-03-13T09:21:27.467Z,1.85
2023-03-13T09:23:55.507Z,1.38
2023-03-13T09:26:23.955Z,0.98
2023-03-13T09:28:52.420Z,1.50
2023-03-13T09:31:26.137Z,1.30
2023-03-13T09:33:54.454Z,1.40
2023-03-13T09:36:24.007Z,1.65
2023-03-13T09:38:53.356Z,1.55
2023-03-13T09:41:37.244Z,1.80
2023-03-13T09:44:13.760Z,1.38
2023-03-13T09:47:01.726Z,1.33
2023-03-13T09:49:42.177Z,1.40
2023-03-13T09:52:16.441Z,1.98
2023-03-13T09:54:54.994Z,1.20
2023-03-13T09:57:36.228Z,1.42
2023-03-13T10:00:12.920Z,1.40
2023-03-13T10:02:45.755Z,1.27
2023-03-13T10:05:28.026Z,1.13
2023-03-13T10:08:17.129Z,1.45
2023-03-13T10:10:48.000Z,1.20
2023-03-13T10:13:22.311Z,2.03
2023-03-13T10:15:58.137Z,1.13
2023-03-13T10:18:26.390Z,1.17
2023-03-13T10:20:58.422Z,1.10
2023-03-13T10:23:53.761Z,1.10
2023-03-13T10:26:34.468Z,1.45
2023-03-13T10:29:25.674Z,1.25
2023-03-13T10:31:59.616Z,1.65
2023-03-13T10:34:29.655Z,1.20
2023-03-13T10:37:00.733Z,1.20
2023-03-13T10:39:29.885Z,1.17
2023-03-13T10:42:13.822Z,0.90
2023-03-13T10:44:44.653Z,1.25
2023-03-13T10:47:15.417Z,1.10
2023-03-13T10:50:00.225Z,1.10
2023-03-13T10:52:42.516Z,0.98
2023-03-13T10:55:22.062Z,1.08
2023-03-13T10:58:00.363Z,1.75
2023-03-13T11:00:39.628Z,1.52
2023-03-13T11:03:17.897Z,1.88
2023-03-13T11:05:57.573Z,1.38
2023-03-13T11:08:28.131Z,1.98
2023-03-13T11:11:01.239Z,1.75
2023-03-13T11:13:43.030Z,1.25
2023-03-13T11:19:11.424Z,3.00
2023-03-13T11:21:53.635Z,1.33
2023-03-13T11:24:32.533Z,1.60
2023-03-13T11:27:20.752Z,1.70
2023-03-13T11:30:06.189Z,1.35
2023-03-13T11:32:34.143Z,2.05
2023-03-13T11:35:11.289Z,1.35
2023-03-13T11:37:40.114Z,2.67
2023-03-13T11:40:08.187Z,2.15
2023-03-13T11:42:53.773Z,1.92
2023-03-13T11:45:50.426Z,2.10
2023-03-13T11:48:45.594Z,1.92
2023-03-13T11:51:20.559Z,2.38
2023-03-13T11:54:26.966Z,1.80
2023-03-13T11:57:05.038Z,2.63
2023-03-13T11:59:50.928Z,2.00
2023-03-13T12:02:29.803Z,2.80
2023-03-13T12:05:04.870Z,3.55
2023-03-13T12:07:38.350Z,3.58
2023-03-13T12:10:10.919Z,1.90
2023-03-13T12:13:11.454Z,3.92
2023-03-13T12:15:43.390Z,2.65
2023-03-13T12:18:24.920Z,2.45
2023-03-13T12:20:58.680Z,3.22
2023-03-13T12:23:47.884Z,2.35
2023-03-13T12:26:16.006Z,2.80
2023-03-13T12:29:17.303Z,2.80
2023-03-13T12:31:59.204Z,2.83
2023-03-13T12:34:46.982Z,2.00
2023-03-13T12:37:20.265Z,3.45
2023-03-13T12:40:01.252Z,2.97
2023-03-13T12:42:38.746Z,2.40
2023-03-13T12:45:08.738Z,2.15
2023-03-13T12:47:45.648Z,1.48
2023-03-13T12:50:32.207Z,2.10
2023-03-13T12:53:21.057Z,1.70
2023-03-13T12:56:11.782Z,2.60
2023-03-13T12:58:53.133Z,2.05
2023-03-13T13:01:33.658Z,2.45
2023-03-13T13:04:13.978Z,2.30
2023-03-13T13:07:02.457Z,2.10
2023-03-13T13:09:36.383Z,1.88
2023-03-13T13:12:20.447Z,2.22
2023-03-13T13:14:48.460Z,2.17
2023-03-13T13:17:21.323Z,2.45
2023-03-13T13:19:49.016Z,2.33
2023-03-13T13:22:37.616Z,1.92
2023-03-13T13:25:11.160Z,1.92
2023-03-13T13:27:38.704Z,1.75
2023-03-13T13:30:18.445Z,1.70
2023-03-13T13:32:50.880Z,2.25
2023-03-13T13:35:34.645Z,2.00
2023-03-13T13:38:27.115Z,1.92
2023-03-13T13:41:11.133Z,1.58
2023-03-13T13:43:47.216Z,1.83
2023-03-13T13:46:29.522Z,1.90
2023-03-13T13:49:06.767Z,2.35
2023-03-13T13:51:38.413Z,1.83
2023-03-13T13:57:02.492Z,2.10
2023-03-13T13:59:42.749Z,2.15
2023-03-13T14:02:14.226Z,2.00
2023-03-13T14:07:55.052Z,2.80
2023-03-13T14:10:39.149Z,1.98
2023-03-13T14:13:21.677Z,1.92
2023-03-13T14:15:53.335Z,2.10
2023-03-13T14:18:29.159Z,2.38
2023-03-13T14:21:05.214Z,2.40
2023-03-13T14:23:44.927Z,2.20
2023-03-13T14:26:21.610Z,1.85
2023-03-13T14:28:54.811Z,1.90
2023-03-13T14:31:38.607Z,1.73
2023-03-13T14:34:12.817Z,1.73
2023-03-13T14:36:57.119Z,2.00
2023-03-13T14:39:42.590Z,1.65
2023-03-13T14:42:13.610Z,1.58
2023-03-13T14:44:44.031Z,2.97
2023-03-13T14:47:26.183Z,1.45
2023-03-13T14:50:12.603Z,2.97
2023-03-13T14:52:46.395Z,2.28
2023-03-13T14:55:23.003Z,1.92
2023-03-13T14:58:21.646Z,1.98
2023-03-13T15:00:50.308Z,2.00
2023-03-13T15:03:19.054Z,1.73
2023-03-13T15:05:50.792Z,2.15
2023-03-13T15:10:49.495Z,2.33
2023-03-13T15:13:25.316Z,2.50
2023-03-13T15:15:54.109Z,2.10
2023-03-13T15:18:27.609Z,2.05
2023-03-13T15:21:13.426Z,2.78
2023-03-13T15:23:42.498Z,2.85
2023-03-13T15:26:10.744Z,2.13
2023-03-13T15:28:38.383Z,1.95
2023-03-13T15:31:06.264Z,2.20
2023-03-13T15:33:34.948Z,2.17
2023-03-13T15:36:02.505Z,2.13
2023-03-13T15:38:30.343Z,2.83
2023-03-13T15:40:57.911Z,2.20
2023-03-13T15:43:26.308Z,2.30
2023-03-13T15:45:54.325Z,3.28
2023-03-13T15:48:25.046Z,3.17
2023-03-13T15:50:54.759Z,2.53
2023-03-13T15:53:35.424Z,3.38
2023-03-13T15:56:31.435Z,4.45
2023-03-13T15:58:59.042Z,2.72
2023-03-13T16:01:26.621Z,4.32
2023-03-13T16:03:54.370Z,3.22
2023-03-13T16:06:30.927Z,3.10
2023-03-13T16:09:05.633Z,3.90
2023-03-13T16:11:33.695Z,4.10
2023-03-13T16:14:01.261Z,4.22
2023-03-13T16:16:31.684Z,3.45
2023-03-13T16:19:00.582Z,4.32
2023-03-13T16:21:31.771Z,2.97
2023-03-13T16:23:59.445Z,4.13
2023-03-13T16:26:29.778Z,4.20
2023-03-13T16:28:58.441Z,3.22
2023-03-13T16:31:28.471Z,4.32
2023-03-13T16:33:57.632Z,4.18
2023-03-13T16:36:31.280Z,3.13
2023-03-13T16:39:01.022Z,4.22
2023-03-13T16:41:29.485Z,4.65
2023-03-13T16:43:57.502Z,3.85
2023-03-13T16:46:40.104Z,4.07
2023-03-13T16:49:14.593Z,5.65
2023-03-13T16:51:42.183Z,5.38
2023-03-13T16:54:12.131Z,4.38
2023-03-13T16:56:42.791Z,4.43
2023-03-13T16:59:16.500Z,4.17
2023-03-13T17:01:46.961Z,3.72
2023-03-13T17:04:14.732Z,4.35
2023-03-13T17:06:44.778Z,4.22
2023-03-13T17:09:15.653Z,4.78
2023-03-13T17:11:43.677Z,3.93
2023-03-13T17:14:11.776Z,3.95
2023-03-13T17:16:42.946Z,3.83
2023-03-13T17:19:13.990Z,5.00
2023-03-13T17:21:42.276Z,4.20
2023-03-13T17:24:10.225Z,3.50
2023-03-13T17:26:39.699Z,4.13
2023-03-13T17:29:10.577Z,4.15
2023-03-13T17:31:38.718Z,4.28
2023-03-13T17:34:07.282Z,4.05
2023-03-13T17:36:35.449Z,4.43
2023-03-13T17:39:05.334Z,3.38
2023-03-13T17:41:34.407Z,4.03
2023-03-13T17:44:05.949Z,3.60
2023-03-13T17:46:44.459Z,4.93
2023-03-13T17:49:16.805Z,2.85
2023-03-13T17:51:46.324Z,3.60
2023-03-13T17:54:16.092Z,3.10
2023-03-13T17:56:44.732Z,3.65
2023-03-13T17:59:17.742Z,3.40
2023-03-13T18:01:46.086Z,3.50
2023-03-13T18:04:13.977Z,3.90
2023-03-13T18:06:44.192Z,2.65
2023-03-13T18:09:37.210Z,4.07
2023-03-13T18:12:25.122Z,3.10
2023-03-13T18:14:53.398Z,2.95
2023-03-13T18:17:23.271Z,3.03
2023-03-13T18:19:51.321Z,3.67
2023-03-13T18:22:24.701Z,3.28
2023-03-13T18:24:53.015Z,3.90
2023-03-13T18:27:21.945Z,2.95
2023-03-13T18:29:50.032Z,3.95
2023-03-13T18:32:18.890Z,2.75
2023-03-13T18:34:46.800Z,4.13
2023-03-13T18:37:24.926Z,3.72
2023-03-13T18:39:52.665Z,3.20
2023-03-13T18:42:20.824Z,3.97
2023-03-13T18:44:48.338Z,3.35
2023-03-13T18:47:18.341Z,3.25
2023-03-13T18:49:48.101Z,2.80
2023-03-13T18:52:16.419Z,3.83
2023-03-13T18:54:44.895Z,4.00
2023-03-13T18:57:17.481Z,3.60
2023-03-13T18:59:46.145Z,2.97
2023-03-13T19:02:16.687Z,3.30
2023-03-13T19:04:47.255Z,3.47
2023-03-13T19:07:27.737Z,2.70
2023-03-13T19:09:55.834Z,3.45
2023-03-13T19:12:23.747Z,2.80
2023-03-13T19:14:51.282Z,2.95
2023-03-13T19:17:29.528Z,3.53
2023-03-13T19:19:57.756Z,3.20
2023-03-13T19:22:26.187Z,3.10
2023-03-13T19:24:54.432Z,2.60
2023-03-13T19:27:22.350Z,4.93
2023-03-13T19:29:50.317Z,3.03
2023-03-13T19:32:19.236Z,3.78
2023-03-13T19:34:46.850Z,2.90
2023-03-13T19:37:15.737Z,3.40
2023-03-13T19:39:44.189Z,3.00
2023-03-13T19:42:12.402Z,2.35
2023-03-13T19:44:40.653Z,2.55
2023-03-13T19:47:12.088Z,2.45
2023-03-13T19:49:40.065Z,2.38
2023-03-13T19:52:08.175Z,4.80
2023-03-13T19:54:36.156Z,4.57
2023-03-13T19:57:04.071Z,3.28
2023-03-13T19:59:35.208Z,2.47
2023-03-13T20:02:04.301Z,2.30
2023-03-13T20:04:33.174Z,3.47
2023-03-13T20:07:02.322Z,4.18
2023-03-13T20:09:30.007Z,4.57
2023-03-13T20:11:58.045Z,4.50
2023-03-13T20:14:25.952Z,6.30
2023-03-13T20:16:53.939Z,5.65
2023-03-13T20:19:24.012Z,7.20
2023-03-13T20:21:54.659Z,6.28
2023-03-13T20:24:22.826Z,4.50
2023-03-13T20:26:50.880Z,4.00
2023-03-13T20:29:18.739Z,4.30
2023-03-13T20:31:47.098Z,4.55
2023-03-13T20:34:14.606Z,3.30
2023-03-13T20:36:42.345Z,4.07
2023-03-13T20:39:09.941Z,4.90
2023-03-13T20:41:38.139Z,5.03
2023-03-13T20:44:06.136Z,4.13
2023-03-13T20:46:35.271Z,5.45
2023-03-13T20:49:02.823Z,5.65
2023-03-13T20:51:30.534Z,6.43
2023-03-13T20:53:58.165Z,4.90
2023-03-13T20:56:29.861Z,6.32
2023-03-13T20:58:57.323Z,5.75
2023-03-13T21:01:26.051Z,5.57
2023-03-13T21:03:54.551Z,5.70
2023-03-13T21:06:22.265Z,3.78
2023-03-13T21:08:50.001Z,4.47
2023-03-13T21:11:22.984Z,3.38
2023-03-13T21:13:51.008Z,3.67
2023-03-13T21:16:19.956Z,4.03
2023-03-13T21:18:47.951Z,4.53
2023-03-13T21:21:18.903Z,4.22
2023-03-13T21:23:46.902Z,3.88
2023-03-13T21:26:14.993Z,4.63
2023-03-13T21:28:42.650Z,3.70
2023-03-13T21:31:18.494Z,3.25
2023-03-13T21:33:47.221Z,3.92
2023-03-13T21:36:17.236Z,3.60
2023-03-13T21:38:45.312Z,3.15
2023-03-13T21:41:15.674Z,2.30
2023-03-13T21:43:43.567Z,3.30
2023-03-13T21:46:12.789Z,2.88
2023-03-13T21:48:42.362Z,3.33
2023-03-13T21:51:10.966Z,5.85
2023-03-13T21:53:38.971Z,2.47
2023-03-13T21:56:07.106Z,2.70
2023-03-13T21:58:35.147Z,2.42
2023-03-13T22:01:02.657Z,2.80
2023-03-13T22:03:31.909Z,2.20
2023-03-13T22:05:59.935Z,1.77
2023-03-13T22:08:27.447Z,2.33
2023-03-13T22:10:55.454Z,2.30
2023-03-13T22:13:22.918Z,2.88
2023-03-13T22:15:52.755Z,3.90
2023-03-13T22:18:20.622Z,2.22
2023-03-13T22:20:48.220Z,2.38
2023-03-13T22:23:16.363Z,5.38
2023-03-13T22:25:45.791Z,2.78
2023-03-13T22:28:13.829Z,8.90
2023-03-13T22:30:43.601Z,10.15
2023-03-13T22:33:11.357Z,5.88
2023-03-13T22:35:39.162Z,3.95
2023-03-13T22:38:07.320Z,2.58
2023-03-13T22:40:35.585Z,3.78
2023-03-13T22:43:03.811Z,2.15
2023-03-13T22:45:34.016Z,2.75
2023-03-13T22:48:06.644Z,3.45
2023-03-13T22:50:35.249Z,3.08
2023-03-13T22:53:03.343Z,2.97
2023-03-13T22:55:33.160Z,2.40
2023-03-13T22:58:00.834Z,2.72
2023-03-13T23:00:28.516Z,2.30
2023-03-13T23:02:56.090Z,3.45
2023-03-13T23:05:24.253Z,2.83
2023-03-13T23:07:52.330Z,3.80
2023-03-13T23:10:20.266Z,4.15
2023-03-13T23:12:48.167Z,2.92
2023-03-13T23:15:16.280Z,2.38
2023-03-13T23:17:44.113Z,2.85
2023-03-13T23:20:13.321Z,2.65
2023-03-13T23:22:43.177Z,2.47
2023-03-13T23:25:12.827Z,2.20
2023-03-13T23:27:41.389Z,2.58
2023-03-13T23:30:11.033Z,3.22
2023-03-13T23:32:40.705Z,2.30
2023-03-13T23:35:09.433Z,2.78
2023-03-13T23:37:37.361Z,2.00
2023-03-13T23:40:08.421Z,2.55
2023-03-13T23:42:36.419Z,2.67
2023-03-13T23:45:05.623Z,3.10
2023-03-13T23:47:33.469Z,2.58
2023-03-13T23:50:02.826Z,2.22
2023-03-13T23:52:30.459Z,1.55
2023-03-13T23:54:58.423Z,1.90
2023-03-13T23:57:26.325Z,2.38
2023-03-13T23:59:54.453Z,1.73
